createdAt,value
2019-06-27T00:01:54.792Z,30.38
2019-06-27T00:04:24.982Z,30.36
2019-06-27T00:06:55.594Z,30.32
2019-06-27T00:09:26.673Z,30.28
2019-06-27T00:11:56.860Z,30.28
2019-06-27T00:14:28.298Z,30.20
2019-06-27T00:16:58.919Z,30.12
2019-06-27T00:19:29.227Z,29.98
2019-06-27T00:21:59.432Z,29.93
2019-06-27T00:24:31.010Z,29.84
2019-06-27T00:27:01.642Z,29.82
2019-06-27T00:29:32.296Z,29.79
2019-06-27T00:32:02.531Z,29.78
2019-06-27T00:34:32.786Z,29.66
2019-06-27T00:37:03.371Z,29.59
2019-06-27T00:39:33.576Z,29.56
2019-06-27T00:42:03.782Z,29.47
2019-06-27T00:44:33.987Z,29.44
2019-06-27T00:47:04.173Z,29.48
2019-06-27T00:49:34.819Z,29.41
2019-06-27T00:52:05.015Z,29.34
2019-06-27T00:54:35.191Z,29.27
2019-06-27T00:57:13.876Z,29.29
2019-06-27T00:59:38.641Z,29.22
2019-06-27T01:02:08.869Z,29.15
2019-06-27T01:04:39.071Z,29.08
2019-06-27T01:07:09.255Z,29.03
2019-06-27T01:09:40.000Z,28.93
2019-06-27T01:12:10.189Z,28.93
2019-06-27T01:14:40.394Z,28.84
2019-06-27T01:17:11.546Z,28.90
2019-06-27T01:19:42.198Z,28.85
2019-06-27T01:22:12.511Z,28.85
2019-06-27T01:24:42.708Z,28.84
2019-06-27T01:27:28.837Z,28.76
2019-06-27T01:29:45.259Z,28.77
2019-06-27T01:32:17.776Z,28.62
2019-06-27T01:34:48.033Z,28.71
2019-06-27T01:37:18.476Z,28.60
2019-06-27T01:39:50.332Z,28.58
2019-06-27T01:42:20.694Z,28.62
2019-06-27T01:44:58.456Z,28.53
2019-06-27T01:47:29.016Z,28.42
2019-06-27T01:49:59.729Z,28.37
2019-06-27T01:52:29.989Z,28.26
2019-06-27T01:55:00.179Z,28.17
2019-06-27T01:57:45.662Z,28.10
2019-06-27T02:00:02.388Z,28.14
2019-06-27T02:02:33.086Z,27.98
2019-06-27T02:05:03.359Z,28.09
2019-06-27T02:07:33.626Z,28.03
2019-06-27T02:10:03.996Z,28.05
2019-06-27T02:12:34.689Z,27.97
2019-06-27T02:15:06.429Z,28.04
2019-06-27T02:17:36.626Z,28.05
2019-06-27T02:20:07.021Z,27.97
2019-06-27T02:22:37.965Z,27.96
2019-06-27T02:25:09.800Z,27.90
2019-06-27T02:27:39.979Z,27.88
2019-06-27T02:30:12.071Z,27.81
2019-06-27T02:32:42.725Z,27.82
2019-06-27T02:35:13.237Z,27.74
2019-06-27T02:37:43.435Z,27.59
2019-06-27T02:40:14.981Z,27.66
2019-06-27T02:42:45.472Z,27.61
2019-06-27T02:45:16.324Z,27.62
2019-06-27T02:47:46.606Z,27.61
2019-06-27T02:50:16.844Z,27.49
2019-06-27T02:52:47.054Z,27.54
2019-06-27T02:55:17.746Z,27.44
2019-06-27T02:57:49.126Z,27.46
2019-06-27T03:00:20.637Z,27.44
2019-06-27T03:02:50.984Z,27.37
2019-06-27T03:05:21.821Z,27.28
2019-06-27T03:07:52.127Z,27.17
2019-06-27T03:10:22.328Z,27.18
2019-06-27T03:12:52.551Z,27.26
2019-06-27T03:15:23.721Z,27.23
2019-06-27T03:17:54.380Z,27.15
2019-06-27T03:20:24.608Z,27.05
2019-06-27T03:22:54.790Z,27.02
2019-06-27T03:25:25.085Z,27.01
2019-06-27T03:27:55.743Z,26.97
2019-06-27T03:30:26.923Z,26.95
2019-06-27T03:32:57.110Z,26.90
2019-06-27T03:35:27.307Z,26.84
2019-06-27T03:37:57.593Z,26.85
2019-06-27T03:40:28.903Z,26.76
2019-06-27T03:42:59.189Z,26.85
2019-06-27T03:45:29.375Z,26.82
2019-06-27T03:47:59.538Z,26.83
2019-06-27T03:50:29.750Z,26.78
2019-06-27T03:53:00.388Z,26.81
2019-06-27T03:55:30.590Z,26.73
2019-06-27T03:58:00.881Z,26.68
2019-06-27T04:00:33.446Z,26.52
2019-06-27T04:03:03.938Z,26.51
2019-06-27T04:05:34.771Z,26.49
2019-06-27T04:08:05.027Z,26.52
2019-06-27T04:10:35.376Z,26.50
2019-06-27T04:13:05.582Z,26.54
2019-06-27T04:15:36.145Z,26.58
2019-06-27T04:18:06.774Z,26.52
2019-06-27T04:20:36.993Z,26.58
2019-06-27T04:23:07.169Z,26.55
2019-06-27T04:25:37.349Z,26.53
2019-06-27T04:28:08.008Z,26.50
2019-06-27T04:30:38.200Z,26.48
2019-06-27T04:33:09.995Z,26.58
2019-06-27T04:35:40.190Z,26.52
2019-06-27T04:38:10.859Z,26.43
2019-06-27T04:40:42.668Z,26.41
2019-06-27T04:43:12.983Z,26.27
2019-06-27T04:45:43.160Z,26.35
2019-06-27T04:48:13.938Z,26.27
2019-06-27T04:50:44.093Z,26.19
2019-06-27T04:53:14.299Z,26.09
2019-06-27T04:55:45.934Z,26.09
2019-06-27T04:58:16.576Z,26.05
2019-06-27T05:00:46.873Z,26.01
2019-06-27T05:03:17.058Z,26.07
2019-06-27T05:05:47.401Z,26.18
2019-06-27T05:08:18.200Z,26.31
2019-06-27T05:10:48.391Z,26.30
2019-06-27T05:13:18.597Z,26.40
2019-06-27T05:15:49.132Z,26.43
2019-06-27T05:18:19.841Z,26.47
2019-06-27T05:20:50.063Z,26.45
2019-06-27T05:23:20.267Z,26.48
2019-06-27T05:25:50.467Z,26.40
2019-06-27T05:28:21.172Z,26.47
2019-06-27T05:30:52.180Z,26.40
2019-06-27T05:33:22.380Z,26.28
2019-06-27T05:35:52.842Z,26.31
2019-06-27T05:38:23.033Z,26.41
2019-06-27T05:40:54.956Z,26.51
2019-06-27T05:43:25.594Z,26.42
2019-06-27T05:45:56.231Z,26.47
2019-06-27T05:48:26.422Z,26.57
2019-06-27T05:50:56.627Z,26.44
2019-06-27T05:53:27.074Z,26.45
2019-06-27T05:55:57.888Z,26.51
2019-06-27T05:58:28.108Z,26.52
2019-06-27T06:00:59.407Z,26.53
2019-06-27T06:03:29.590Z,26.49
2019-06-27T06:06:00.426Z,26.43
2019-06-27T06:08:30.643Z,26.41
2019-06-27T06:11:01.229Z,26.35
2019-06-27T06:13:31.546Z,26.25
2019-06-27T06:16:01.743Z,26.30
2019-06-27T06:18:33.919Z,26.38
2019-06-27T06:21:04.120Z,26.35
2019-06-27T06:23:34.331Z,26.38
2019-06-27T06:26:04.555Z,26.46
2019-06-27T06:28:35.270Z,26.50
2019-06-27T06:31:05.480Z,26.44
2019-06-27T06:33:35.908Z,26.60
2019-06-27T06:36:07.541Z,26.51
2019-06-27T06:38:38.281Z,26.57
2019-06-27T06:41:09.991Z,26.61
2019-06-27T06:43:40.351Z,26.57
2019-06-27T06:46:10.558Z,26.53
2019-06-27T06:48:40.911Z,26.59
2019-06-27T06:51:11.624Z,26.49
2019-06-27T06:53:41.880Z,26.59
2019-06-27T06:56:12.239Z,26.70
2019-06-27T06:58:42.462Z,26.70
2019-06-27T07:01:13.238Z,26.73
2019-06-27T07:03:43.547Z,26.60
2019-06-27T07:06:13.867Z,26.81
2019-06-27T07:08:44.095Z,26.81
2019-06-27T07:11:14.739Z,26.94
2019-06-27T07:13:45.079Z,27.04
2019-06-27T07:16:15.275Z,27.12
2019-06-27T07:18:45.454Z,27.06
2019-06-27T07:21:15.684Z,27.12
2019-06-27T07:23:46.373Z,27.19
2019-06-27T07:26:17.849Z,27.17
2019-06-27T07:28:48.056Z,27.17
2019-06-27T07:31:18.601Z,27.10
2019-06-27T07:33:49.364Z,27.15
2019-06-27T07:36:19.603Z,27.26
2019-06-27T07:38:50.952Z,27.15
2019-06-27T07:41:22.426Z,27.27
2019-06-27T07:43:54.198Z,27.35
2019-06-27T07:46:25.848Z,27.49
2019-06-27T07:48:56.206Z,27.55
2019-06-27T07:51:26.403Z,27.65
2019-06-27T07:53:57.147Z,27.70
2019-06-27T07:56:27.457Z,27.67
2019-06-27T07:58:57.658Z,27.75
2019-06-27T08:01:35.120Z,27.83
2019-06-27T08:04:00.299Z,27.80
2019-06-27T08:06:30.676Z,27.80
2019-06-27T08:09:00.975Z,27.76
2019-06-27T08:11:32.879Z,27.76
2019-06-27T08:14:03.544Z,27.77
2019-06-27T08:16:33.793Z,27.90
2019-06-27T08:19:04.031Z,28.07
2019-06-27T08:21:34.300Z,28.17
2019-06-27T08:24:04.829Z,28.13
2019-06-27T08:26:35.703Z,28.11
2019-06-27T08:29:05.911Z,28.34
2019-06-27T08:31:50.473Z,28.24
2019-06-27T08:34:09.448Z,28.32
2019-06-27T08:36:40.175Z,28.42
2019-06-27T08:39:10.699Z,28.43
2019-06-27T08:41:41.617Z,28.50
2019-06-27T08:44:11.823Z,28.35
2019-06-27T08:46:42.022Z,28.46
2019-06-27T08:49:14.073Z,28.55
2019-06-27T08:51:44.275Z,28.60
2019-06-27T08:54:14.480Z,28.68
2019-06-27T08:56:44.695Z,28.59
2019-06-27T08:59:15.455Z,28.73
2019-06-27T09:01:46.385Z,28.66
2019-06-27T09:04:16.558Z,28.75
2019-06-27T09:06:48.403Z,28.85
2019-06-27T09:09:19.132Z,28.97
2019-06-27T09:11:49.337Z,29.02
2019-06-27T09:14:19.602Z,28.97
2019-06-27T09:16:49.873Z,29.11
2019-06-27T09:19:20.648Z,28.96
2019-06-27T09:21:52.201Z,29.17
2019-06-27T09:24:22.405Z,29.23
2019-06-27T09:26:52.609Z,29.43
2019-06-27T09:29:22.834Z,29.59
2019-06-27T09:31:53.475Z,29.64
2019-06-27T09:34:23.721Z,29.74
2019-06-27T09:36:55.140Z,29.85
2019-06-27T09:39:27.059Z,29.71
2019-06-27T09:41:58.420Z,29.65
2019-06-27T09:44:28.798Z,29.79
2019-06-27T09:46:59.639Z,30.03
2019-06-27T09:49:29.843Z,30.15
2019-06-27T09:52:00.636Z,30.19
2019-06-27T09:54:30.818Z,30.24
2019-06-27T09:57:00.965Z,30.11
2019-06-27T09:59:31.798Z,30.22
2019-06-27T10:02:01.998Z,30.21
2019-06-27T10:04:32.231Z,30.32
2019-06-27T10:07:03.311Z,30.36
2019-06-27T10:09:34.036Z,30.52
2019-06-27T10:12:04.319Z,30.73
2019-06-27T10:14:35.493Z,30.88
2019-06-27T10:17:06.870Z,30.95
2019-06-27T10:19:37.583Z,30.98
2019-06-27T10:22:08.730Z,31.17
2019-06-27T10:24:38.955Z,31.46
2019-06-27T10:27:09.171Z,31.64
2019-06-27T10:29:39.898Z,31.49
2019-06-27T10:32:10.208Z,31.73
2019-06-27T10:34:43.224Z,31.95
2019-06-27T10:37:14.065Z,32.11
2019-06-27T10:39:44.720Z,32.20
2019-06-27T10:42:16.622Z,32.24
2019-06-27T10:44:47.135Z,32.53
2019-06-27T10:47:17.336Z,32.40
2019-06-27T10:49:47.521Z,32.56
2019-06-27T10:52:19.291Z,32.80
2019-06-27T10:54:50.002Z,32.72
2019-06-27T10:57:20.175Z,33.03
2019-06-27T10:59:50.360Z,33.14
2019-06-27T11:02:20.563Z,33.14
2019-06-27T11:04:51.133Z,33.33
2019-06-27T11:07:21.887Z,33.43
2019-06-27T11:09:52.246Z,33.58
2019-06-27T11:12:22.622Z,33.75
2019-06-27T11:14:59.120Z,33.88
2019-06-27T11:17:26.952Z,33.98
2019-06-27T11:19:57.589Z,34.22
2019-06-27T11:22:27.815Z,34.24
2019-06-27T11:24:58.115Z,34.39
2019-06-27T11:27:28.615Z,34.52
2019-06-27T11:29:59.335Z,34.72
2019-06-27T11:32:29.525Z,34.72
2019-06-27T11:34:59.724Z,34.84
2019-06-27T11:37:29.941Z,34.95
2019-06-27T11:40:00.585Z,34.91
2019-06-27T11:42:32.181Z,35.00
2019-06-27T11:45:02.499Z,35.18
2019-06-27T11:47:34.599Z,35.27
2019-06-27T11:50:04.649Z,35.39
2019-06-27T11:52:34.870Z,35.69
2019-06-27T11:55:05.744Z,35.91
2019-06-27T11:57:35.937Z,35.76
2019-06-27T12:00:07.072Z,35.94
2019-06-27T12:02:37.337Z,35.99
2019-06-27T12:05:08.664Z,36.04
2019-06-27T12:07:38.883Z,36.19
2019-06-27T12:10:11.179Z,36.40
2019-06-27T12:12:41.431Z,36.63
2019-06-27T12:15:12.655Z,36.82
2019-06-27T12:17:42.846Z,37.04
2019-06-27T12:20:14.071Z,37.27
2019-06-27T12:22:44.315Z,37.16
2019-06-27T12:25:15.534Z,37.32
2019-06-27T12:27:45.722Z,37.24
2019-06-27T12:30:17.840Z,37.27
2019-06-27T12:32:52.522Z,37.41
2019-06-27T12:35:20.379Z,37.47
2019-06-27T12:37:50.582Z,37.76
2019-06-27T12:40:21.755Z,37.82
2019-06-27T12:42:52.637Z,37.92
2019-06-27T12:45:23.754Z,37.99
2019-06-27T12:47:53.940Z,37.96
2019-06-27T12:50:24.244Z,37.99
2019-06-27T12:52:54.470Z,38.05
2019-06-27T12:55:26.575Z,37.99
2019-06-27T12:57:56.757Z,37.95
2019-06-27T13:00:28.530Z,37.99
2019-06-27T13:02:58.754Z,38.24
2019-06-27T13:05:29.623Z,38.31
2019-06-27T13:07:59.883Z,38.47
2019-06-27T13:10:36.803Z,38.66
2019-06-27T13:13:07.072Z,38.82
2019-06-27T13:15:37.986Z,38.96
2019-06-27T13:18:08.304Z,39.03
2019-06-27T13:20:38.584Z,39.18
2019-06-27T13:23:08.874Z,39.26
2019-06-27T13:25:39.591Z,39.32
2019-06-27T13:28:10.201Z,39.44
2019-06-27T13:30:40.399Z,39.33
2019-06-27T13:33:10.647Z,39.46
2019-06-27T13:35:40.933Z,39.56
2019-06-27T13:38:11.621Z,39.76
2019-06-27T13:40:41.897Z,39.79
2019-06-27T13:43:13.867Z,39.87
2019-06-27T13:45:44.152Z,40.06
2019-06-27T13:48:14.374Z,40.08
2019-06-27T13:50:44.693Z,40.11
2019-06-27T13:53:15.513Z,40.22
2019-06-27T13:55:45.691Z,40.38
2019-06-27T13:58:16.419Z,40.48
2019-06-27T14:00:47.111Z,40.61
2019-06-27T14:03:17.526Z,40.69
2019-06-27T14:05:48.277Z,40.80
2019-06-27T14:08:18.538Z,40.80
2019-06-27T14:10:48.667Z,40.98
2019-06-27T14:13:19.342Z,41.04
2019-06-27T14:15:50.072Z,41.06
2019-06-27T14:18:20.609Z,41.14
2019-06-27T14:20:50.812Z,41.20
2019-06-27T14:23:21.305Z,41.34
2019-06-27T14:25:52.017Z,41.31
2019-06-27T14:28:22.870Z,41.39
2019-06-27T14:30:53.057Z,41.40
2019-06-27T14:33:23.246Z,41.50
2019-06-27T14:35:53.565Z,41.66
2019-06-27T14:38:24.259Z,41.75
2019-06-27T14:40:54.566Z,41.91
2019-06-27T14:43:26.771Z,41.94
2019-06-27T14:45:56.986Z,41.91
2019-06-27T14:48:27.191Z,41.78
2019-06-27T14:50:57.409Z,41.80
2019-06-27T14:53:28.178Z,41.57
2019-06-27T14:55:58.367Z,41.74
2019-06-27T14:58:33.234Z,41.85
2019-06-27T15:01:05.101Z,41.86
2019-06-27T15:03:33.788Z,41.98
2019-06-27T15:06:04.442Z,42.08
2019-06-27T15:08:34.718Z,42.09
2019-06-27T15:11:04.952Z,42.13
2019-06-27T15:13:36.091Z,42.34
2019-06-27T15:16:11.875Z,42.47
2019-06-27T15:18:39.618Z,42.68
2019-06-27T15:21:09.992Z,42.90
2019-06-27T15:23:40.274Z,43.14
2019-06-27T15:26:10.490Z,43.40
2019-06-27T15:28:41.219Z,43.61
2019-06-27T15:31:11.398Z,43.61
2019-06-27T15:33:41.591Z,43.22
2019-06-27T15:36:11.877Z,42.62
2019-06-27T15:38:42.520Z,41.99
2019-06-27T15:41:12.769Z,41.23
2019-06-27T15:43:44.084Z,40.48
2019-06-27T15:46:14.268Z,40.01
2019-06-27T15:48:45.866Z,39.37
2019-06-27T15:51:16.516Z,38.81
2019-06-27T15:53:46.760Z,38.46
2019-06-27T15:56:18.004Z,37.97
2019-06-27T15:58:48.227Z,37.63
2019-06-27T16:01:18.952Z,37.14
2019-06-27T16:03:49.195Z,36.87
2019-06-27T16:06:19.496Z,36.63
2019-06-27T16:08:49.895Z,36.41
2019-06-27T16:11:20.567Z,36.19
2019-06-27T16:13:50.877Z,35.98
2019-06-27T16:16:21.049Z,35.56
2019-06-27T16:18:51.255Z,35.39
2019-06-27T16:21:21.467Z,35.35
2019-06-27T16:23:56.497Z,35.00
2019-06-27T16:26:26.650Z,35.09
2019-06-27T16:28:56.846Z,34.92
2019-06-27T16:31:27.083Z,34.80
2019-06-27T16:33:57.942Z,34.79
2019-06-27T16:36:28.285Z,34.49
2019-06-27T16:38:58.488Z,34.43
2019-06-27T16:41:28.918Z,34.39
2019-06-27T16:44:00.269Z,34.32
2019-06-27T16:46:30.578Z,34.28
2019-06-27T16:49:00.820Z,34.12
2019-06-27T16:51:31.117Z,34.05
2019-06-27T16:54:01.841Z,33.98
2019-06-27T16:56:32.290Z,33.80
2019-06-27T16:59:03.398Z,33.76
2019-06-27T17:01:33.734Z,33.77
2019-06-27T17:04:04.411Z,33.68
2019-06-27T17:06:41.965Z,33.57
2019-06-27T17:09:07.297Z,33.58
2019-06-27T17:11:37.499Z,33.65
2019-06-27T17:14:07.706Z,33.65
2019-06-27T17:16:38.246Z,33.48
2019-06-27T17:19:08.995Z,33.51
2019-06-27T17:21:39.294Z,33.42
2019-06-27T17:24:09.509Z,33.20
2019-06-27T17:26:39.676Z,33.19
2019-06-27T17:29:09.988Z,33.15
2019-06-27T17:31:40.615Z,33.15
2019-06-27T17:34:14.093Z,33.08
2019-06-27T17:36:57.075Z,33.12
2019-06-27T17:39:16.355Z,33.05
2019-06-27T17:41:47.146Z,32.98
2019-06-27T17:44:20.082Z,32.90
2019-06-27T17:46:50.704Z,32.85
2019-06-27T17:49:20.887Z,32.83
2019-06-27T17:51:51.131Z,32.79
2019-06-27T17:54:21.332Z,32.77
2019-06-27T17:56:51.986Z,32.76
2019-06-27T17:59:22.398Z,32.74
2019-06-27T18:01:52.686Z,32.64
2019-06-27T18:04:22.887Z,32.57
2019-06-27T18:06:54.404Z,32.43
2019-06-27T18:09:25.030Z,32.44
2019-06-27T18:11:55.240Z,32.39
2019-06-27T18:14:25.494Z,32.36
2019-06-27T18:16:55.725Z,32.22
2019-06-27T18:19:26.578Z,32.25
2019-06-27T18:21:56.821Z,32.27
2019-06-27T18:24:27.235Z,32.21
2019-06-27T18:26:57.503Z,32.12
2019-06-27T18:29:28.301Z,32.16
2019-06-27T18:31:58.499Z,32.12
2019-06-27T18:34:28.890Z,32.07
2019-06-27T18:36:59.123Z,32.08
2019-06-27T18:39:31.039Z,32.03
2019-06-27T18:42:01.774Z,32.07
2019-06-27T18:44:32.577Z,32.08
2019-06-27T18:47:02.957Z,32.08
2019-06-27T18:49:33.734Z,32.05
2019-06-27T18:52:06.359Z,31.98
2019-06-27T18:54:37.017Z,31.96
2019-06-27T18:57:08.190Z,31.95
2019-06-27T18:59:38.670Z,31.86
2019-06-27T19:02:08.970Z,31.89
2019-06-27T19:04:39.696Z,31.73
2019-06-27T19:07:09.928Z,31.81
2019-06-27T19:09:40.155Z,31.72
2019-06-27T19:12:10.402Z,31.67
2019-06-27T19:14:40.722Z,31.57
2019-06-27T19:17:11.409Z,31.56
2019-06-27T19:19:43.689Z,31.56
2019-06-27T19:22:32.849Z,31.49
2019-06-27T19:25:08.941Z,31.43
2019-06-27T19:27:40.718Z,31.47
2019-06-27T19:30:12.519Z,31.41
2019-06-27T19:32:43.095Z,31.37
2019-06-27T19:35:13.671Z,31.38
2019-06-27T19:37:44.441Z,31.35
2019-06-27T19:40:15.298Z,31.32
2019-06-27T19:42:45.525Z,31.35
2019-06-27T19:45:17.663Z,31.35
2019-06-27T19:47:48.428Z,31.37
2019-06-27T19:50:20.640Z,31.32
2019-06-27T19:52:51.196Z,31.18
2019-06-27T19:55:22.751Z,31.20
2019-06-27T19:57:52.907Z,31.18
2019-06-27T20:00:24.116Z,31.05
2019-06-27T20:02:54.542Z,31.03
2019-06-27T20:05:25.203Z,31.05
2019-06-27T20:07:55.713Z,30.94
2019-06-27T20:10:26.150Z,30.89
2019-06-27T20:12:57.728Z,30.86
2019-06-27T20:15:28.404Z,30.77
2019-06-27T20:17:58.788Z,30.70
2019-06-27T20:20:30.241Z,30.71
2019-06-27T20:23:00.478Z,30.53
2019-06-27T20:25:31.197Z,30.65
2019-06-27T20:28:02.722Z,30.61
2019-06-27T20:30:33.101Z,30.53
2019-06-27T20:33:03.526Z,30.47
2019-06-27T20:35:34.240Z,30.39
2019-06-27T20:38:04.569Z,30.32
2019-06-27T20:40:34.915Z,30.26
2019-06-27T20:43:06.423Z,30.23
2019-06-27T20:45:38.294Z,30.24
2019-06-27T20:48:08.621Z,30.16
2019-06-27T20:50:38.866Z,30.15
2019-06-27T20:53:09.381Z,30.01
2019-06-27T20:55:40.185Z,29.91
2019-06-27T20:58:11.678Z,29.89
2019-06-27T21:00:41.879Z,29.81
2019-06-27T21:03:12.242Z,29.81
2019-06-27T21:05:42.994Z,29.80
2019-06-27T21:08:13.240Z,29.71
2019-06-27T21:10:43.502Z,29.52
2019-06-27T21:13:14.728Z,29.38
2019-06-27T21:15:44.944Z,29.07
2019-06-27T21:18:15.548Z,29.21
2019-06-27T21:20:45.838Z,29.16
2019-06-27T21:23:16.047Z,29.11
2019-06-27T21:25:46.341Z,29.11
2019-06-27T21:28:17.977Z,29.02
2019-06-27T21:30:48.797Z,28.79
2019-06-27T21:33:18.993Z,28.88
2019-06-27T21:35:49.283Z,28.78
2019-06-27T21:38:19.527Z,28.86
2019-06-27T21:40:49.757Z,28.59
2019-06-27T21:43:20.415Z,28.58
2019-06-27T21:45:52.578Z,28.57
2019-06-27T21:48:22.841Z,28.58
2019-06-27T21:50:53.164Z,28.50
2019-06-27T21:53:23.413Z,28.30
2019-06-27T21:55:53.653Z,28.31
2019-06-27T21:58:24.471Z,28.26
2019-06-27T22:00:54.800Z,28.24
2019-06-27T22:03:25.107Z,28.18
2019-06-27T22:05:55.309Z,28.23
2019-06-27T22:08:26.172Z,28.23
2019-06-27T22:10:56.372Z,28.21
2019-06-27T22:13:26.606Z,28.11
2019-06-27T22:15:57.227Z,28.14
2019-06-27T22:18:27.961Z,28.15
2019-06-27T22:20:58.204Z,28.13
2019-06-27T22:23:28.477Z,28.18
2019-06-27T22:25:58.859Z,28.12
2019-06-27T22:28:29.592Z,28.08
2019-06-27T22:31:00.840Z,28.06
2019-06-27T22:33:31.106Z,27.94
2019-06-27T22:36:01.473Z,27.95
2019-06-27T22:38:49.572Z,27.92
2019-06-27T22:41:37.777Z,27.90
2019-06-27T22:44:25.867Z,27.87
2019-06-27T22:47:14.709Z,27.78
2019-06-27T22:49:46.177Z,27.65
2019-06-27T22:52:41.442Z,27.60
2019-06-27T22:55:17.119Z,27.58
2019-06-27T22:57:47.398Z,27.51
2019-06-27T23:00:18.496Z,27.40
2019-06-27T23:02:48.730Z,27.38
2019-06-27T23:05:20.520Z,27.28
2019-06-27T23:07:51.840Z,27.23
2019-06-27T23:10:22.631Z,27.20
2019-06-27T23:12:52.850Z,27.15
2019-06-27T23:15:23.663Z,27.15
2019-06-27T23:17:53.863Z,27.14
2019-06-27T23:20:24.283Z,27.10
2019-06-27T23:22:54.455Z,27.10
2019-06-27T23:25:25.277Z,27.08
2019-06-27T23:27:55.514Z,27.00
2019-06-27T23:30:25.785Z,26.80
2019-06-27T23:32:56.090Z,26.92
2019-06-27T23:35:26.758Z,26.97
2019-06-27T23:37:57.000Z,26.95
2019-06-27T23:40:27.237Z,26.83
2019-06-27T23:43:04.702Z,26.79
2019-06-27T23:45:35.497Z,26.77
2019-06-27T23:48:06.962Z,26.75
2019-06-27T23:50:37.234Z,26.79
2019-06-27T23:53:07.510Z,26.56
2019-06-27T23:55:37.866Z,26.40
2019-06-27T23:58:09.766Z,26.50
